sensor_id;sensor_type;location;lat;lon;timestamp;P1;durP1;ratioP1;P2;durP2;ratioP2
41829;SDS011;38614;43.472;23.936;2023-07-13T00:02:02;7.78;;;4.85;;
41829;SDS011;38614;43.472;23.936;2023-07-13T00:04:50;8.82;;;4.32;;
41829;SDS011;38614;43.472;23.936;2023-07-13T00:07:39;6.57;;;5.15;;
41829;SDS011;38614;43.472;23.936;2023-07-13T00:10:27;8.68;;;5.78;;
41829;SDS011;38614;43.472;23.936;2023-07-13T00:13:14;8.15;;;4.40;;
41829;SDS011;38614;43.472;23.936;2023-07-13T00:16:03;9.00;;;4.80;;
41829;SDS011;38614;43.472;23.936;2023-07-13T00:18:51;10.20;;;5.43;;
41829;SDS011;38614;43.472;23.936;2023-07-13T00:21:40;11.60;;;5.28;;
41829;SDS011;38614;43.472;23.936;2023-07-13T00:24:31;6.40;;;4.70;;
41829;SDS011;38614;43.472;23.936;2023-07-13T00:27:19;6.32;;;4.38;;
41829;SDS011;38614;43.472;23.936;2023-07-13T00:30:07;10.20;;;5.63;;
41829;SDS011;38614;43.472;23.936;2023-07-13T00:32:58;10.02;;;5.03;;
41829;SDS011;38614;43.472;23.936;2023-07-13T00:36:06;11.73;;;4.65;;
41829;SDS011;38614;43.472;23.936;2023-07-13T00:38:54;10.50;;;5.78;;
41829;SDS011;38614;43.472;23.936;2023-07-13T00:41:43;7.38;;;4.70;;
41829;SDS011;38614;43.472;23.936;2023-07-13T00:44:31;7.28;;;4.90;;
41829;SDS011;38614;43.472;23.936;2023-07-13T00:47:22;11.88;;;6.40;;
41829;SDS011;38614;43.472;23.936;2023-07-13T00:50:10;8.65;;;5.15;;
41829;SDS011;38614;43.472;23.936;2023-07-13T00:53:01;11.32;;;5.25;;
41829;SDS011;38614;43.472;23.936;2023-07-13T00:55:50;9.85;;;5.85;;
41829;SDS011;38614;43.472;23.936;2023-07-13T00:58:39;10.65;;;6.40;;
41829;SDS011;38614;43.472;23.936;2023-07-13T01:01:27;8.65;;;5.28;;
41829;SDS011;38614;43.472;23.936;2023-07-13T01:04:15;10.52;;;4.68;;
41829;SDS011;38614;43.472;23.936;2023-07-13T01:07:05;7.00;;;4.05;;
41829;SDS011;38614;43.472;23.936;2023-07-13T01:09:54;5.72;;;4.50;;
41829;SDS011;38614;43.472;23.936;2023-07-13T01:12:42;8.70;;;4.35;;
41829;SDS011;38614;43.472;23.936;2023-07-13T01:18:30;8.13;;;4.88;;
41829;SDS011;38614;43.472;23.936;2023-07-13T01:21:19;10.05;;;4.40;;
41829;SDS011;38614;43.472;23.936;2023-07-13T01:24:07;12.88;;;5.50;;
41829;SDS011;38614;43.472;23.936;2023-07-13T01:26:56;7.10;;;4.78;;
41829;SDS011;38614;43.472;23.936;2023-07-13T01:29:47;6.20;;;4.43;;
41829;SDS011;38614;43.472;23.936;2023-07-13T01:32:35;8.40;;;4.57;;
41829;SDS011;38614;43.472;23.936;2023-07-13T01:35:24;8.32;;;4.68;;
41829;SDS011;38614;43.472;23.936;2023-07-13T01:38:14;4.93;;;4.22;;
41829;SDS011;38614;43.472;23.936;2023-07-13T01:41:02;6.30;;;4.25;;
41829;SDS011;38614;43.472;23.936;2023-07-13T01:43:50;7.47;;;4.10;;
41829;SDS011;38614;43.472;23.936;2023-07-13T01:46:38;5.18;;;4.10;;
41829;SDS011;38614;43.472;23.936;2023-07-13T01:49:26;9.05;;;4.50;;
41829;SDS011;38614;43.472;23.936;2023-07-13T01:52:14;8.70;;;4.25;;
41829;SDS011;38614;43.472;23.936;2023-07-13T01:55:02;10.07;;;5.10;;
41829;SDS011;38614;43.472;23.936;2023-07-13T01:57:50;5.90;;;4.63;;
41829;SDS011;38614;43.472;23.936;2023-07-13T02:00:41;6.82;;;4.85;;
41829;SDS011;38614;43.472;23.936;2023-07-13T02:03:29;5.88;;;4.38;;
41829;SDS011;38614;43.472;23.936;2023-07-13T02:06:18;8.57;;;4.80;;
41829;SDS011;38614;43.472;23.936;2023-07-13T02:09:07;5.88;;;5.28;;
41829;SDS011;38614;43.472;23.936;2023-07-13T02:11:55;6.65;;;5.28;;
41829;SDS011;38614;43.472;23.936;2023-07-13T02:14:43;8.80;;;4.28;;
41829;SDS011;38614;43.472;23.936;2023-07-13T02:17:31;5.15;;;4.43;;
41829;SDS011;38614;43.472;23.936;2023-07-13T02:20:22;8.88;;;5.78;;
41829;SDS011;38614;43.472;23.936;2023-07-13T02:23:10;7.38;;;5.30;;
41829;SDS011;38614;43.472;23.936;2023-07-13T02:26:01;9.10;;;5.43;;
41829;SDS011;38614;43.472;23.936;2023-07-13T02:28:50;8.32;;;5.00;;
41829;SDS011;38614;43.472;23.936;2023-07-13T02:31:39;6.63;;;5.90;;
41829;SDS011;38614;43.472;23.936;2023-07-13T02:34:27;16.77;;;4.80;;
41829;SDS011;38614;43.472;23.936;2023-07-13T02:37:17;11.88;;;6.47;;
41829;SDS011;38614;43.472;23.936;2023-07-13T02:40:05;6.72;;;4.90;;
41829;SDS011;38614;43.472;23.936;2023-07-13T02:42:56;9.95;;;5.78;;
41829;SDS011;38614;43.472;23.936;2023-07-13T02:45:45;8.63;;;4.65;;
41829;SDS011;38614;43.472;23.936;2023-07-13T02:48:34;8.85;;;5.15;;
41829;SDS011;38614;43.472;23.936;2023-07-13T02:51:21;12.80;;;5.95;;
41829;SDS011;38614;43.472;23.936;2023-07-13T02:54:09;17.02;;;6.68;;
41829;SDS011;38614;43.472;23.936;2023-07-13T02:56:58;10.38;;;5.65;;
41829;SDS011;38614;43.472;23.936;2023-07-13T02:59:46;7.43;;;4.90;;
41829;SDS011;38614;43.472;23.936;2023-07-13T03:02:34;8.48;;;5.43;;
41829;SDS011;38614;43.472;23.936;2023-07-13T03:05:23;6.63;;;5.25;;
41829;SDS011;38614;43.472;23.936;2023-07-13T03:08:15;8.18;;;5.57;;
41829;SDS011;38614;43.472;23.936;2023-07-13T03:11:04;5.35;;;4.85;;
41829;SDS011;38614;43.472;23.936;2023-07-13T03:13:57;10.65;;;6.07;;
41829;SDS011;38614;43.472;23.936;2023-07-13T03:16:47;12.63;;;5.85;;
41829;SDS011;38614;43.472;23.936;2023-07-13T03:19:35;8.50;;;5.40;;
41829;SDS011;38614;43.472;23.936;2023-07-13T03:22:23;6.35;;;4.35;;
41829;SDS011;38614;43.472;23.936;2023-07-13T03:25:12;8.80;;;4.72;;
41829;SDS011;38614;43.472;23.936;2023-07-13T03:28:00;7.05;;;4.57;;
41829;SDS011;38614;43.472;23.936;2023-07-13T03:30:48;11.13;;;5.10;;
41829;SDS011;38614;43.472;23.936;2023-07-13T03:33:46;5.80;;;4.55;;
41829;SDS011;38614;43.472;23.936;2023-07-13T03:36:35;6.78;;;4.20;;
41829;SDS011;38614;43.472;23.936;2023-07-13T03:39:27;7.05;;;4.35;;
41829;SDS011;38614;43.472;23.936;2023-07-13T03:42:17;7.90;;;4.80;;
41829;SDS011;38614;43.472;23.936;2023-07-13T03:45:06;9.10;;;4.78;;
41829;SDS011;38614;43.472;23.936;2023-07-13T03:47:59;7.35;;;4.60;;
41829;SDS011;38614;43.472;23.936;2023-07-13T03:50:47;13.20;;;5.22;;
41829;SDS011;38614;43.472;23.936;2023-07-13T03:53:43;5.93;;;4.72;;
41829;SDS011;38614;43.472;23.936;2023-07-13T03:56:34;12.10;;;6.40;;
41829;SDS011;38614;43.472;23.936;2023-07-13T03:59:23;8.30;;;5.93;;
41829;SDS011;38614;43.472;23.936;2023-07-13T04:02:11;7.85;;;6.28;;
41829;SDS011;38614;43.472;23.936;2023-07-13T04:04:59;9.30;;;5.57;;
41829;SDS011;38614;43.472;23.936;2023-07-13T04:07:47;13.35;;;6.90;;
41829;SDS011;38614;43.472;23.936;2023-07-13T04:10:35;12.93;;;5.85;;
41829;SDS011;38614;43.472;23.936;2023-07-13T04:13:22;6.75;;;5.60;;
41829;SDS011;38614;43.472;23.936;2023-07-13T04:16:12;12.88;;;6.32;;
41829;SDS011;38614;43.472;23.936;2023-07-13T04:19:01;10.23;;;5.28;;
41829;SDS011;38614;43.472;23.936;2023-07-13T04:21:51;7.35;;;6.13;;
41829;SDS011;38614;43.472;23.936;2023-07-13T04:24:42;10.57;;;7.05;;
41829;SDS011;38614;43.472;23.936;2023-07-13T04:27:30;10.57;;;6.50;;
41829;SDS011;38614;43.472;23.936;2023-07-13T04:30:19;10.95;;;7.60;;
41829;SDS011;38614;43.472;23.936;2023-07-13T04:33:07;17.85;;;8.48;;
41829;SDS011;38614;43.472;23.936;2023-07-13T04:35:56;9.10;;;7.78;;
41829;SDS011;38614;43.472;23.936;2023-07-13T04:38:47;10.38;;;7.22;;
41829;SDS011;38614;43.472;23.936;2023-07-13T04:41:37;15.02;;;6.72;;
41829;SDS011;38614;43.472;23.936;2023-07-13T04:44:29;10.65;;;6.82;;
41829;SDS011;38614;43.472;23.936;2023-07-13T04:47:18;11.05;;;6.95;;
41829;SDS011;38614;43.472;23.936;2023-07-13T04:50:07;8.63;;;6.82;;
41829;SDS011;38614;43.472;23.936;2023-07-13T04:52:55;13.30;;;6.88;;
41829;SDS011;38614;43.472;23.936;2023-07-13T04:55:43;9.73;;;7.75;;
41829;SDS011;38614;43.472;23.936;2023-07-13T04:58:31;11.18;;;6.65;;
41829;SDS011;38614;43.472;23.936;2023-07-13T05:01:20;9.85;;;6.80;;
41829;SDS011;38614;43.472;23.936;2023-07-13T05:04:10;9.48;;;6.55;;
41829;SDS011;38614;43.472;23.936;2023-07-13T05:06:58;14.73;;;7.47;;
41829;SDS011;38614;43.472;23.936;2023-07-13T05:09:47;13.55;;;7.75;;
41829;SDS011;38614;43.472;23.936;2023-07-13T05:12:35;10.43;;;7.32;;
41829;SDS011;38614;43.472;23.936;2023-07-13T05:15:23;12.15;;;6.55;;
41829;SDS011;38614;43.472;23.936;2023-07-13T05:18:13;8.70;;;7.05;;
41829;SDS011;38614;43.472;23.936;2023-07-13T05:21:05;12.32;;;7.40;;
41829;SDS011;38614;43.472;23.936;2023-07-13T05:23:53;9.38;;;7.25;;
41829;SDS011;38614;43.472;23.936;2023-07-13T05:26:41;20.25;;;8.25;;
41829;SDS011;38614;43.472;23.936;2023-07-13T05:29:29;16.38;;;7.82;;
41829;SDS011;38614;43.472;23.936;2023-07-13T05:32:17;20.00;;;6.53;;
41829;SDS011;38614;43.472;23.936;2023-07-13T05:35:06;18.02;;;5.65;;
41829;SDS011;38614;43.472;23.936;2023-07-13T05:37:54;13.95;;;4.90;;
41829;SDS011;38614;43.472;23.936;2023-07-13T05:40:48;7.75;;;5.25;;
41829;SDS011;38614;43.472;23.936;2023-07-13T05:43:37;6.95;;;5.70;;
41829;SDS011;38614;43.472;23.936;2023-07-13T05:46:25;13.77;;;6.95;;
41829;SDS011;38614;43.472;23.936;2023-07-13T05:49:13;11.05;;;5.53;;
41829;SDS011;38614;43.472;23.936;2023-07-13T05:52:00;10.07;;;6.05;;
41829;SDS011;38614;43.472;23.936;2023-07-13T05:54:48;7.95;;;5.07;;
41829;SDS011;38614;43.472;23.936;2023-07-13T05:57:36;9.75;;;5.30;;
41829;SDS011;38614;43.472;23.936;2023-07-13T06:00:24;5.55;;;4.70;;
41829;SDS011;38614;43.472;23.936;2023-07-13T06:03:12;12.20;;;4.35;;
41829;SDS011;38614;43.472;23.936;2023-07-13T06:06:01;5.18;;;3.97;;
41829;SDS011;38614;43.472;23.936;2023-07-13T06:08:49;5.75;;;3.75;;
41829;SDS011;38614;43.472;23.936;2023-07-13T06:11:37;10.88;;;4.55;;
41829;SDS011;38614;43.472;23.936;2023-07-13T06:14:25;10.60;;;4.30;;
41829;SDS011;38614;43.472;23.936;2023-07-13T06:17:12;5.05;;;3.60;;
41829;SDS011;38614;43.472;23.936;2023-07-13T06:20:00;4.68;;;3.80;;
41829;SDS011;38614;43.472;23.936;2023-07-13T06:22:48;6.57;;;3.97;;
41829;SDS011;38614;43.472;23.936;2023-07-13T06:25:36;11.18;;;4.80;;
41829;SDS011;38614;43.472;23.936;2023-07-13T06:28:23;11.63;;;4.47;;
41829;SDS011;38614;43.472;23.936;2023-07-13T06:31:12;6.55;;;5.03;;
41829;SDS011;38614;43.472;23.936;2023-07-13T06:34:03;6.03;;;3.45;;
41829;SDS011;38614;43.472;23.936;2023-07-13T06:36:51;8.38;;;4.63;;
41829;SDS011;38614;43.472;23.936;2023-07-13T06:39:38;6.68;;;4.40;;
41829;SDS011;38614;43.472;23.936;2023-07-13T06:42:26;6.88;;;4.05;;
41829;SDS011;38614;43.472;23.936;2023-07-13T06:45:14;9.10;;;4.47;;
41829;SDS011;38614;43.472;23.936;2023-07-13T06:48:02;5.28;;;4.68;;
41829;SDS011;38614;43.472;23.936;2023-07-13T06:50:50;7.90;;;3.72;;
41829;SDS011;38614;43.472;23.936;2023-07-13T06:53:38;8.50;;;4.25;;
41829;SDS011;38614;43.472;23.936;2023-07-13T06:56:26;16.90;;;5.03;;
41829;SDS011;38614;43.472;23.936;2023-07-13T06:59:14;6.78;;;5.07;;
41829;SDS011;38614;43.472;23.936;2023-07-13T07:02:02;5.82;;;4.40;;
41829;SDS011;38614;43.472;23.936;2023-07-13T07:04:50;9.02;;;4.95;;
41829;SDS011;38614;43.472;23.936;2023-07-13T07:07:37;5.90;;;4.55;;
41829;SDS011;38614;43.472;23.936;2023-07-13T07:10:25;10.80;;;4.07;;
41829;SDS011;38614;43.472;23.936;2023-07-13T07:13:15;5.50;;;3.97;;
41829;SDS011;38614;43.472;23.936;2023-07-13T07:16:03;9.85;;;4.18;;
41829;SDS011;38614;43.472;23.936;2023-07-13T07:18:51;8.23;;;4.07;;
41829;SDS011;38614;43.472;23.936;2023-07-13T07:21:38;8.23;;;4.35;;
41829;SDS011;38614;43.472;23.936;2023-07-13T07:24:26;9.10;;;4.10;;
41829;SDS011;38614;43.472;23.936;2023-07-13T07:27:14;13.82;;;3.63;;
41829;SDS011;38614;43.472;23.936;2023-07-13T07:30:04;16.55;;;4.38;;
41829;SDS011;38614;43.472;23.936;2023-07-13T07:32:55;8.10;;;3.38;;
41829;SDS011;38614;43.472;23.936;2023-07-13T07:35:43;6.57;;;3.05;;
41829;SDS011;38614;43.472;23.936;2023-07-13T07:38:51;7.15;;;3.38;;
41829;SDS011;38614;43.472;23.936;2023-07-13T07:41:42;8.03;;;3.07;;
41829;SDS011;38614;43.472;23.936;2023-07-13T07:44:43;7.90;;;2.88;;
41829;SDS011;38614;43.472;23.936;2023-07-13T07:47:33;2.95;;;2.45;;
41829;SDS011;38614;43.472;23.936;2023-07-13T07:50:20;4.32;;;3.10;;
41829;SDS011;38614;43.472;23.936;2023-07-13T07:53:08;8.00;;;2.80;;
41829;SDS011;38614;43.472;23.936;2023-07-13T07:55:57;4.60;;;2.28;;
41829;SDS011;38614;43.472;23.936;2023-07-13T07:59:05;4.70;;;1.85;;
41829;SDS011;38614;43.472;23.936;2023-07-13T08:01:55;6.22;;;2.33;;
41829;SDS011;38614;43.472;23.936;2023-07-13T08:04:46;4.55;;;1.95;;
41829;SDS011;38614;43.472;23.936;2023-07-13T08:07:36;2.08;;;1.65;;
41829;SDS011;38614;43.472;23.936;2023-07-13T08:10:24;3.50;;;1.95;;
41829;SDS011;38614;43.472;23.936;2023-07-13T08:13:12;2.53;;;2.05;;
41829;SDS011;38614;43.472;23.936;2023-07-13T08:16:00;2.85;;;1.85;;
41829;SDS011;38614;43.472;23.936;2023-07-13T08:18:48;9.30;;;2.65;;
41829;SDS011;38614;43.472;23.936;2023-07-13T08:21:36;3.03;;;2.15;;
41829;SDS011;38614;43.472;23.936;2023-07-13T08:24:24;2.10;;;1.90;;
41829;SDS011;38614;43.472;23.936;2023-07-13T08:27:14;3.50;;;2.23;;
41829;SDS011;38614;43.472;23.936;2023-07-13T08:30:01;3.53;;;1.73;;
41829;SDS011;38614;43.472;23.936;2023-07-13T08:32:52;3.45;;;2.38;;
41829;SDS011;38614;43.472;23.936;2023-07-13T08:35:40;3.88;;;2.05;;
41829;SDS011;38614;43.472;23.936;2023-07-13T08:38:30;2.40;;;2.20;;
41829;SDS011;38614;43.472;23.936;2023-07-13T08:41:17;5.30;;;1.80;;
41829;SDS011;38614;43.472;23.936;2023-07-13T08:44:07;9.70;;;1.52;;
41829;SDS011;38614;43.472;23.936;2023-07-13T08:47:02;4.53;;;1.67;;
41829;SDS011;38614;43.472;23.936;2023-07-13T08:49:52;4.40;;;1.90;;
41829;SDS011;38614;43.472;23.936;2023-07-13T08:52:40;5.65;;;1.52;;
41829;SDS011;38614;43.472;23.936;2023-07-13T08:55:30;4.65;;;1.95;;
41829;SDS011;38614;43.472;23.936;2023-07-13T08:58:20;5.18;;;1.30;;
41829;SDS011;38614;43.472;23.936;2023-07-13T09:01:16;4.72;;;1.83;;
41829;SDS011;38614;43.472;23.936;2023-07-13T09:04:07;1.92;;;1.30;;
41829;SDS011;38614;43.472;23.936;2023-07-13T09:07:29;5.38;;;2.03;;
41829;SDS011;38614;43.472;23.936;2023-07-13T09:16:43;2.30;;;1.73;;
41829;SDS011;38614;43.472;23.936;2023-07-13T09:19:31;2.25;;;1.35;;
41829;SDS011;38614;43.472;23.936;2023-07-13T09:22:33;1.77;;;1.67;;
41829;SDS011;38614;43.472;23.936;2023-07-13T09:31:04;4.13;;;1.80;;
41829;SDS011;38614;43.472;23.936;2023-07-13T09:33:53;7.20;;;1.98;;
41829;SDS011;38614;43.472;23.936;2023-07-13T09:36:40;3.03;;;1.55;;
41829;SDS011;38614;43.472;23.936;2023-07-13T09:39:43;5.05;;;1.45;;
41829;SDS011;38614;43.472;23.936;2023-07-13T09:42:32;2.55;;;1.13;;
41829;SDS011;38614;43.472;23.936;2023-07-13T09:45:27;4.95;;;1.02;;
41829;SDS011;38614;43.472;23.936;2023-07-13T09:48:15;2.10;;;1.27;;
41829;SDS011;38614;43.472;23.936;2023-07-13T09:51:10;5.13;;;1.80;;
41829;SDS011;38614;43.472;23.936;2023-07-13T09:54:00;3.45;;;1.13;;
41829;SDS011;38614;43.472;23.936;2023-07-13T09:56:53;10.40;;;2.03;;
41829;SDS011;38614;43.472;23.936;2023-07-13T09:59:44;5.60;;;2.47;;
41829;SDS011;38614;43.472;23.936;2023-07-13T10:03:20;6.30;;;1.30;;
41829;SDS011;38614;43.472;23.936;2023-07-13T10:06:13;3.28;;;1.55;;
41829;SDS011;38614;43.472;23.936;2023-07-13T10:09:01;2.05;;;1.55;;
41829;SDS011;38614;43.472;23.936;2023-07-13T10:11:49;5.78;;;1.70;;
41829;SDS011;38614;43.472;23.936;2023-07-13T10:14:38;6.87;;;2.10;;
41829;SDS011;38614;43.472;23.936;2023-07-13T10:17:29;2.33;;;1.27;;
41829;SDS011;38614;43.472;23.936;2023-07-13T10:20:20;7.32;;;1.55;;
41829;SDS011;38614;43.472;23.936;2023-07-13T10:23:11;6.90;;;2.03;;
41829;SDS011;38614;43.472;23.936;2023-07-13T10:26:01;2.13;;;1.50;;
41829;SDS011;38614;43.472;23.936;2023-07-13T10:28:51;2.38;;;1.20;;
41829;SDS011;38614;43.472;23.936;2023-07-13T10:31:40;3.05;;;1.70;;
41829;SDS011;38614;43.472;23.936;2023-07-13T10:34:29;5.07;;;1.63;;
41829;SDS011;38614;43.472;23.936;2023-07-13T10:37:19;1.80;;;1.50;;
41829;SDS011;38614;43.472;23.936;2023-07-13T10:40:16;4.65;;;1.60;;
41829;SDS011;38614;43.472;23.936;2023-07-13T10:43:08;6.18;;;1.58;;
41829;SDS011;38614;43.472;23.936;2023-07-13T10:45:59;1.70;;;1.38;;
41829;SDS011;38614;43.472;23.936;2023-07-13T10:48:51;3.65;;;2.13;;
41829;SDS011;38614;43.472;23.936;2023-07-13T10:51:39;6.37;;;2.50;;
41829;SDS011;38614;43.472;23.936;2023-07-13T10:54:31;6.90;;;1.90;;
41829;SDS011;38614;43.472;23.936;2023-07-13T10:57:20;8.70;;;1.58;;
41829;SDS011;38614;43.472;23.936;2023-07-13T11:00:17;2.38;;;1.40;;
41829;SDS011;38614;43.472;23.936;2023-07-13T11:03:10;4.10;;;1.95;;
41829;SDS011;38614;43.472;23.936;2023-07-13T11:06:08;3.42;;;1.33;;
41829;SDS011;38614;43.472;23.936;2023-07-13T11:09:35;5.22;;;1.40;;
41829;SDS011;38614;43.472;23.936;2023-07-13T11:15:06;2.78;;;1.00;;
41829;SDS011;38614;43.472;23.936;2023-07-13T11:18:02;5.47;;;1.70;;
41829;SDS011;38614;43.472;23.936;2023-07-13T11:20:50;2.47;;;1.55;;
41829;SDS011;38614;43.472;23.936;2023-07-13T11:23:38;2.08;;;1.45;;
41829;SDS011;38614;43.472;23.936;2023-07-13T11:26:42;13.50;;;1.55;;
41829;SDS011;38614;43.472;23.936;2023-07-13T11:29:37;5.25;;;1.67;;
41829;SDS011;38614;43.472;23.936;2023-07-13T11:32:31;2.65;;;1.25;;
41829;SDS011;38614;43.472;23.936;2023-07-13T11:35:23;3.35;;;1.40;;
41829;SDS011;38614;43.472;23.936;2023-07-13T11:38:55;10.63;;;2.17;;
41829;SDS011;38614;43.472;23.936;2023-07-13T11:41:45;4.70;;;1.23;;
41829;SDS011;38614;43.472;23.936;2023-07-13T11:44:46;2.85;;;1.48;;
41829;SDS011;38614;43.472;23.936;2023-07-13T11:47:55;12.13;;;2.33;;
41829;SDS011;38614;43.472;23.936;2023-07-13T11:50:53;2.92;;;1.13;;
41829;SDS011;38614;43.472;23.936;2023-07-13T11:53:47;4.05;;;2.00;;
41829;SDS011;38614;43.472;23.936;2023-07-13T11:56:44;7.95;;;2.00;;
41829;SDS011;38614;43.472;23.936;2023-07-13T11:59:36;2.90;;;1.27;;
41829;SDS011;38614;43.472;23.936;2023-07-13T12:02:28;3.22;;;1.30;;
41829;SDS011;38614;43.472;23.936;2023-07-13T12:05:20;2.47;;;1.52;;
41829;SDS011;38614;43.472;23.936;2023-07-13T12:08:08;5.03;;;1.77;;
41829;SDS011;38614;43.472;23.936;2023-07-13T12:11:13;3.10;;;1.38;;
41829;SDS011;38614;43.472;23.936;2023-07-13T12:14:04;6.55;;;1.55;;
41829;SDS011;38614;43.472;23.936;2023-07-13T12:16:55;3.88;;;1.30;;
41829;SDS011;38614;43.472;23.936;2023-07-13T12:22:36;2.25;;;1.35;;
41829;SDS011;38614;43.472;23.936;2023-07-13T12:25:26;2.53;;;1.73;;
41829;SDS011;38614;43.472;23.936;2023-07-13T12:28:21;5.75;;;2.08;;
41829;SDS011;38614;43.472;23.936;2023-07-13T12:31:25;4.95;;;2.00;;
41829;SDS011;38614;43.472;23.936;2023-07-13T12:34:17;10.00;;;2.28;;
41829;SDS011;38614;43.472;23.936;2023-07-13T12:37:08;6.13;;;1.90;;
41829;SDS011;38614;43.472;23.936;2023-07-13T12:40:01;5.70;;;1.05;;
41829;SDS011;38614;43.472;23.936;2023-07-13T12:42:51;6.25;;;1.55;;
41829;SDS011;38614;43.472;23.936;2023-07-13T12:45:40;3.65;;;1.10;;
41829;SDS011;38614;43.472;23.936;2023-07-13T12:48:42;4.65;;;1.40;;
41829;SDS011;38614;43.472;23.936;2023-07-13T12:51:36;10.82;;;2.15;;
41829;SDS011;38614;43.472;23.936;2023-07-13T12:54:24;2.35;;;1.10;;
41829;SDS011;38614;43.472;23.936;2023-07-13T12:57:13;2.70;;;1.75;;
41829;SDS011;38614;43.472;23.936;2023-07-13T13:00:03;5.22;;;1.75;;
41829;SDS011;38614;43.472;23.936;2023-07-13T13:02:52;6.28;;;2.03;;
41829;SDS011;38614;43.472;23.936;2023-07-13T13:06:02;4.25;;;1.40;;
41829;SDS011;38614;43.472;23.936;2023-07-13T13:08:55;4.93;;;1.40;;
41829;SDS011;38614;43.472;23.936;2023-07-13T13:11:43;2.90;;;1.65;;
41829;SDS011;38614;43.472;23.936;2023-07-13T13:14:31;2.70;;;1.50;;
41829;SDS011;38614;43.472;23.936;2023-07-13T13:17:23;3.92;;;1.52;;
41829;SDS011;38614;43.472;23.936;2023-07-13T13:20:20;11.55;;;2.60;;
41829;SDS011;38614;43.472;23.936;2023-07-13T13:23:11;1.90;;;0.98;;
41829;SDS011;38614;43.472;23.936;2023-07-13T13:26:08;3.80;;;1.10;;
41829;SDS011;38614;43.472;23.936;2023-07-13T13:28:57;3.72;;;1.50;;
41829;SDS011;38614;43.472;23.936;2023-07-13T13:31:44;9.77;;;1.45;;
41829;SDS011;38614;43.472;23.936;2023-07-13T13:34:32;6.78;;;1.80;;
41829;SDS011;38614;43.472;23.936;2023-07-13T13:37:22;5.47;;;1.38;;
41829;SDS011;38614;43.472;23.936;2023-07-13T13:40:14;2.38;;;1.20;;
41829;SDS011;38614;43.472;23.936;2023-07-13T13:43:02;4.22;;;1.83;;
41829;SDS011;38614;43.472;23.936;2023-07-13T13:45:49;11.15;;;2.15;;
41829;SDS011;38614;43.472;23.936;2023-07-13T13:48:37;4.68;;;1.98;;
41829;SDS011;38614;43.472;23.936;2023-07-13T13:51:28;10.90;;;1.30;;
41829;SDS011;38614;43.472;23.936;2023-07-13T13:54:17;6.65;;;2.00;;
41829;SDS011;38614;43.472;23.936;2023-07-13T13:57:05;5.53;;;1.50;;
41829;SDS011;38614;43.472;23.936;2023-07-13T13:59:54;6.22;;;1.92;;
41829;SDS011;38614;43.472;23.936;2023-07-13T14:02:47;10.80;;;1.58;;
41829;SDS011;38614;43.472;23.936;2023-07-13T14:05:35;8.98;;;1.88;;
41829;SDS011;38614;43.472;23.936;2023-07-13T14:08:26;5.75;;;2.15;;
41829;SDS011;38614;43.472;23.936;2023-07-13T14:11:14;9.00;;;1.45;;
41829;SDS011;38614;43.472;23.936;2023-07-13T14:14:02;6.05;;;1.42;;
41829;SDS011;38614;43.472;23.936;2023-07-13T14:16:51;7.93;;;1.80;;
41829;SDS011;38614;43.472;23.936;2023-07-13T14:19:42;11.82;;;2.70;;
41829;SDS011;38614;43.472;23.936;2023-07-13T14:22:30;3.20;;;1.30;;
41829;SDS011;38614;43.472;23.936;2023-07-13T14:31:08;13.18;;;1.48;;
41829;SDS011;38614;43.472;23.936;2023-07-13T14:33:56;6.47;;;1.77;;
41829;SDS011;38614;43.472;23.936;2023-07-13T14:36:47;4.53;;;1.70;;
41829;SDS011;38614;43.472;23.936;2023-07-13T14:39:38;4.55;;;1.55;;
41829;SDS011;38614;43.472;23.936;2023-07-13T14:42:25;4.72;;;1.60;;
41829;SDS011;38614;43.472;23.936;2023-07-13T14:45:17;9.23;;;2.75;;
41829;SDS011;38614;43.472;23.936;2023-07-13T14:48:05;5.07;;;2.05;;
41829;SDS011;38614;43.472;23.936;2023-07-13T14:50:56;4.13;;;1.20;;
41829;SDS011;38614;43.472;23.936;2023-07-13T14:53:44;2.90;;;1.40;;
41829;SDS011;38614;43.472;23.936;2023-07-13T14:56:32;7.20;;;2.47;;
41829;SDS011;38614;43.472;23.936;2023-07-13T14:59:19;5.95;;;1.27;;
41829;SDS011;38614;43.472;23.936;2023-07-13T15:05:20;5.05;;;1.38;;
41829;SDS011;38614;43.472;23.936;2023-07-13T15:08:09;4.28;;;1.67;;
41829;SDS011;38614;43.472;23.936;2023-07-13T15:10:57;4.80;;;1.63;;
41829;SDS011;38614;43.472;23.936;2023-07-13T15:13:47;3.67;;;1.67;;
41829;SDS011;38614;43.472;23.936;2023-07-13T15:16:35;1.60;;;1.33;;
41829;SDS011;38614;43.472;23.936;2023-07-13T15:19:23;5.32;;;1.25;;
41829;SDS011;38614;43.472;23.936;2023-07-13T15:22:14;3.97;;;1.42;;
41829;SDS011;38614;43.472;23.936;2023-07-13T15:25:02;3.60;;;1.67;;
41829;SDS011;38614;43.472;23.936;2023-07-13T15:27:53;1.58;;;1.10;;
41829;SDS011;38614;43.472;23.936;2023-07-13T15:30:42;3.03;;;1.45;;
41829;SDS011;38614;43.472;23.936;2023-07-13T15:33:30;10.52;;;2.03;;
41829;SDS011;38614;43.472;23.936;2023-07-13T15:36:18;2.35;;;1.38;;
41829;SDS011;38614;43.472;23.936;2023-07-13T15:39:06;6.25;;;2.20;;
41829;SDS011;38614;43.472;23.936;2023-07-13T15:41:54;3.30;;;1.45;;
41829;SDS011;38614;43.472;23.936;2023-07-13T15:44:42;5.40;;;1.90;;
41829;SDS011;38614;43.472;23.936;2023-07-13T15:47:29;1.95;;;0.95;;
41829;SDS011;38614;43.472;23.936;2023-07-13T15:50:18;4.20;;;2.17;;
41829;SDS011;38614;43.472;23.936;2023-07-13T15:53:08;7.90;;;1.60;;
41829;SDS011;38614;43.472;23.936;2023-07-13T15:55:56;35.58;;;3.80;;
41829;SDS011;38614;43.472;23.936;2023-07-13T15:58:45;8.35;;;1.92;;
41829;SDS011;38614;43.472;23.936;2023-07-13T16:01:33;3.20;;;1.77;;
41829;SDS011;38614;43.472;23.936;2023-07-13T16:04:22;2.38;;;1.35;;
41829;SDS011;38614;43.472;23.936;2023-07-13T16:07:10;5.72;;;1.85;;
41829;SDS011;38614;43.472;23.936;2023-07-13T16:12:49;9.60;;;2.17;;
41829;SDS011;38614;43.472;23.936;2023-07-13T16:15:36;4.72;;;1.73;;
41829;SDS011;38614;43.472;23.936;2023-07-13T16:18:24;11.32;;;1.83;;
41829;SDS011;38614;43.472;23.936;2023-07-13T16:21:14;7.13;;;1.63;;
41829;SDS011;38614;43.472;23.936;2023-07-13T16:24:03;11.25;;;1.75;;
41829;SDS011;38614;43.472;23.936;2023-07-13T16:26:52;4.77;;;1.47;;
41829;SDS011;38614;43.472;23.936;2023-07-13T16:29:43;10.48;;;1.98;;
41829;SDS011;38614;43.472;23.936;2023-07-13T16:32:32;4.13;;;1.75;;
41829;SDS011;38614;43.472;23.936;2023-07-13T16:35:22;7.32;;;2.08;;
41829;SDS011;38614;43.472;23.936;2023-07-13T16:38:16;7.40;;;1.77;;
41829;SDS011;38614;43.472;23.936;2023-07-13T16:41:05;5.55;;;1.45;;
41829;SDS011;38614;43.472;23.936;2023-07-13T16:43:57;7.43;;;1.98;;
41829;SDS011;38614;43.472;23.936;2023-07-13T16:46:48;4.80;;;1.83;;
41829;SDS011;38614;43.472;23.936;2023-07-13T16:49:37;4.28;;;1.60;;
41829;SDS011;38614;43.472;23.936;2023-07-13T16:52:24;3.22;;;1.52;;
41829;SDS011;38614;43.472;23.936;2023-07-13T16:55:14;3.05;;;1.90;;
41829;SDS011;38614;43.472;23.936;2023-07-13T16:58:02;11.30;;;1.98;;
41829;SDS011;38614;43.472;23.936;2023-07-13T17:00:51;6.57;;;2.00;;
41829;SDS011;38614;43.472;23.936;2023-07-13T17:03:39;7.85;;;2.08;;
41829;SDS011;38614;43.472;23.936;2023-07-13T17:06:28;10.07;;;2.03;;
41829;SDS011;38614;43.472;23.936;2023-07-13T17:09:17;7.10;;;1.77;;
41829;SDS011;38614;43.472;23.936;2023-07-13T17:12:04;5.85;;;1.77;;
41829;SDS011;38614;43.472;23.936;2023-07-13T17:14:56;2.03;;;1.50;;
41829;SDS011;38614;43.472;23.936;2023-07-13T17:17:44;25.33;;;2.85;;
41829;SDS011;38614;43.472;23.936;2023-07-13T17:20:34;14.00;;;3.08;;